Time;durP1;ratioP1;P1;durP2;ratioP2;P2;SDS_P1;SDS_P2;PMS_P1;PMS_P2;Temp;Humidity;BMP_temperature;BMP_pressure;BME280_temperature;BME280_humidity;BME280_pressure;Samples;Min_cycle;Max_cycle;Signal;HPM_P1;HPM_P2
2021/12/12 00:00:26;;;;;;;33.23;11.40;;;7.10;99.90;;;;;;4965400;28;38521;-78
2021/12/12 00:02:58;;;;;;;45.60;13.00;;;7.10;99.90;;;;;;4967933;28;38997;-78
2021/12/12 00:05:36;;;;;;;44.03;12.60;;;7.10;99.90;;;;;;4967962;28;38983;-78
2021/12/12 00:08:03;;;;;;;36.53;11.63;;;7.10;99.90;;;;;;4962944;28;38720;-79
2021/12/12 00:10:33;;;;;;;33.00;11.10;;;7.10;99.90;;;;;;4964360;28;38446;-77
2021/12/12 00:13:07;;;;;;;37.67;11.33;;;7.10;99.90;;;;;;4969535;28;39754;-78
2021/12/12 00:15:33;;;;;;;29.03;11.43;;;7.20;99.90;;;;;;4948196;28;47469;-78
2021/12/12 00:17:59;;;;;;;37.67;11.40;;;7.20;99.90;;;;;;4951363;28;39586;-78
2021/12/12 00:20:27;;;;;;;25.53;10.93;;;7.10;99.90;;;;;;4952904;28;40017;-78
2021/12/12 00:22:58;;;;;;;35.97;11.57;;;7.20;99.90;;;;;;4972832;28;37939;-78
2021/12/12 00:25:32;;;;;;;39.60;12.37;;;7.20;99.90;;;;;;4946088;28;38219;-78
2021/12/12 00:27:59;;;;;;;34.70;10.57;;;7.20;99.90;;;;;;4953168;28;37641;-78
2021/12/12 00:30:26;;;;;;;37.93;11.97;;;7.20;99.90;;;;;;4958547;28;38146;-78
2021/12/12 00:32:53;;;;;;;29.77;10.90;;;7.20;99.90;;;;;;4957902;28;39814;-78
2021/12/12 00:35:19;;;;;;;35.73;12.13;;;7.20;99.90;;;;;;4958229;28;36422;-78
2021/12/12 00:37:49;;;;;;;32.53;11.50;;;7.20;99.90;;;;;;4957425;28;40412;-77
2021/12/12 00:40:33;;;;;;;33.53;11.33;;;7.20;99.90;;;;;;4967288;28;39635;-78
2021/12/12 00:43:05;;;;;;;33.07;12.03;;;7.20;99.90;;;;;;4967745;28;39121;-78
2021/12/12 00:45:32;;;;;;;31.33;11.40;;;7.20;99.90;;;;;;4959900;28;46902;-78
2021/12/12 00:47:58;;;;;;;34.83;11.07;;;7.20;99.90;;;;;;4960556;28;39567;-78
2021/12/12 00:50:30;;;;;;;29.03;10.87;;;7.20;99.90;;;;;;4970993;28;38595;-78
2021/12/12 00:52:57;;;;;;;41.33;11.00;;;7.20;99.90;;;;;;4971012;28;38101;-78
2021/12/12 00:55:24;;;;;;;32.90;10.33;;;7.20;99.90;;;;;;4967586;28;38300;-77
2021/12/12 00:57:53;;;;;;;29.20;11.20;;;7.20;99.90;;;;;;4972984;28;39712;-78
2021/12/12 01:00:36;;;;;;;26.40;10.40;;;7.20;99.90;;;;;;4969566;28;40318;-78
2021/12/12 01:03:04;;;;;;;29.87;10.40;;;7.20;99.90;;;;;;4967471;28;38716;-78
2021/12/12 01:05:31;;;;;;;27.87;10.67;;;7.20;99.90;;;;;;4971447;28;38253;-78
2021/12/12 01:07:57;;;;;;;34.43;10.97;;;7.20;99.90;;;;;;4991949;28;38219;-78
2021/12/12 01:10:38;;;;;;;23.57;9.53;;;7.20;99.90;;;;;;4989453;28;37178;-78
2021/12/12 01:13:05;;;;;;;35.97;10.53;;;7.30;99.90;;;;;;4986648;28;36731;-79
2021/12/12 01:15:38;;;;;;;32.73;11.50;;;7.30;99.90;;;;;;4985854;28;36910;-79
2021/12/12 01:18:10;;;;;;;28.33;10.13;;;7.30;99.90;;;;;;4987364;28;38718;-79
2021/12/12 01:20:40;;;;;;;27.87;9.90;;;7.30;99.90;;;;;;4978838;28;39162;-78
2021/12/12 01:23:19;;;;;;;33.43;10.07;;;7.30;99.90;;;;;;4979097;28;38023;-79
2021/12/12 01:25:47;;;;;;;34.20;10.33;;;7.30;99.90;;;;;;4969218;28;37790;-78
2021/12/12 01:28:18;;;;;;;27.17;9.57;;;7.30;99.90;;;;;;4968847;28;39237;-79
2021/12/12 01:30:45;;;;;;;30.57;10.30;;;7.30;99.90;;;;;;4984394;28;39266;-79
2021/12/12 01:33:20;;;;;;;27.53;8.93;;;7.30;99.90;;;;;;4968997;28;40092;-78
2021/12/12 01:35:47;;;;;;;25.87;9.73;;;7.30;99.90;;;;;;4980799;28;38902;-79
2021/12/12 01:40:59;;;;;;;23.53;9.13;;;7.40;99.90;;;;;;4979374;28;39874;-78
2021/12/12 01:43:30;;;;;;;28.83;9.33;;;7.40;99.90;;;;;;4963258;28;39598;-79
2021/12/12 01:46:05;;;;;;;34.53;9.57;;;7.30;99.90;;;;;;4982892;28;37424;-78
2021/12/12 01:48:36;;;;;;;34.27;10.00;;;7.40;99.90;;;;;;4979212;28;48144;-78
2021/12/12 01:51:08;;;;;;;29.10;9.70;;;7.40;99.90;;;;;;4963088;28;39626;-78
2021/12/12 01:53:38;;;;;;;37.57;11.00;;;7.30;99.90;;;;;;4962994;28;38818;-78
2021/12/12 01:56:17;;;;;;;27.10;10.07;;;7.30;99.90;;;;;;4963545;28;39023;-79
2021/12/12 01:58:47;;;;;;;39.73;10.90;;;7.40;99.90;;;;;;4979563;28;38916;-78
2021/12/12 02:01:24;;;;;;;22.77;8.93;;;7.40;99.90;;;;;;4962834;28;40141;-78
2021/12/12 02:03:55;;;;;;;34.20;11.00;;;7.30;99.90;;;;;;4970426;28;38694;-78
2021/12/12 02:06:23;;;;;;;28.93;12.47;;;7.40;99.90;;;;;;4969981;28;38952;-79
2021/12/12 02:08:51;;;;;;;32.07;11.13;;;7.40;99.90;;;;;;4980541;28;38360;-78
2021/12/12 02:11:21;;;;;;;29.17;12.57;;;7.40;99.90;;;;;;4980197;28;37753;-78
2021/12/12 02:13:52;;;;;;;38.87;11.67;;;7.40;99.90;;;;;;4970074;28;39118;-78
2021/12/12 02:16:20;;;;;;;30.20;12.17;;;7.40;99.90;;;;;;4981627;28;38791;-78
2021/12/12 02:18:50;;;;;;;33.23;12.80;;;7.40;99.90;;;;;;4974848;28;39498;-78
2021/12/12 02:21:28;;;;;;;26.23;11.37;;;7.40;99.90;;;;;;4986187;28;39261;-78
2021/12/12 02:35:13;;;;;;;31.43;13.13;;;7.30;99.90;;;;;;4995856;28;39665;-78
2021/12/12 02:37:41;;;;;;;34.27;14.47;;;7.40;99.90;;;;;;4996999;28;47077;-79
2021/12/12 02:40:17;;;;;;;36.07;15.63;;;7.40;99.90;;;;;;4986906;28;37950;-78
2021/12/12 02:42:45;;;;;;;38.00;16.70;;;7.40;99.90;;;;;;4981480;28;37442;-78
2021/12/12 02:45:16;;;;;;;29.87;16.37;;;7.40;99.90;;;;;;4964983;28;37109;-78
2021/12/12 02:47:45;;;;;;;34.93;15.23;;;7.40;99.90;;;;;;4970698;28;36518;-78
2021/12/12 02:50:18;;;;;;;34.63;16.77;;;7.40;99.90;;;;;;4986999;28;39635;-76
2021/12/12 02:52:46;;;;;;;;;;;7.40;99.90;;;;;;4968761;28;37700;-77
2021/12/12 02:55:18;;;;;;;37.97;19.47;;;7.40;99.90;;;;;;4973646;28;37768;-77
2021/12/12 02:57:44;;;;;;;47.63;19.70;;;7.40;99.90;;;;;;4962441;28;35659;-77
2021/12/12 03:00:17;;;;;;;45.70;24.80;;;7.40;99.90;;;;;;4976937;28;37595;-76
2021/12/12 03:02:46;;;;;;;37.93;22.63;;;7.40;99.90;;;;;;4963074;28;38464;-77
2021/12/12 03:05:18;;;;;;;35.93;20.03;;;7.50;99.90;;;;;;4975344;28;38540;-77
2021/12/12 03:07:45;;;;;;;41.28;22.40;;;7.50;99.90;;;;;;4953097;28;37394;-78
2021/12/12 03:10:20;;;;;;;45.00;24.17;;;7.50;99.90;;;;;;4971642;28;37729;-78
2021/12/12 03:12:46;;;;;;;43.60;23.63;;;7.50;99.90;;;;;;4979309;28;39136;-77
2021/12/12 03:15:21;;;;;;;45.77;23.07;;;7.50;99.90;;;;;;4975365;28;39548;-77
2021/12/12 03:17:50;;;;;;;45.67;24.80;;;7.50;99.90;;;;;;4979628;28;38884;-78
2021/12/12 03:20:33;;;;;;;46.23;25.27;;;7.60;99.90;;;;;;4961421;28;37318;-78
2021/12/12 03:23:05;;;;;;;47.27;28.20;;;7.60;99.90;;;;;;4964402;28;37255;-78
2021/12/12 03:25:35;;;;;;;52.10;27.27;;;7.60;99.90;;;;;;4978846;28;47962;-78
2021/12/12 03:28:01;;;;;;;46.10;27.57;;;7.60;99.90;;;;;;4976033;28;38077;-78
2021/12/12 03:30:28;;;;;;;47.67;26.17;;;7.60;99.90;;;;;;4977476;28;48600;-78
2021/12/12 03:32:54;;;;;;;45.97;27.70;;;7.60;99.90;;;;;;4963777;28;39314;-78
2021/12/12 03:35:20;;;;;;;55.27;30.37;;;7.60;99.90;;;;;;4979690;28;38033;-79
2021/12/12 03:37:48;;;;;;;47.90;28.47;;;7.60;99.90;;;;;;4963671;28;36079;-78
2021/12/12 03:40:28;;;;;;;47.83;29.60;;;7.60;99.90;;;;;;4964001;28;39509;-78
2021/12/12 03:42:57;;;;;;;48.50;30.70;;;7.70;99.90;;;;;;4978459;28;37741;-78
2021/12/12 03:45:24;;;;;;;45.10;29.20;;;7.70;99.90;;;;;;4957777;28;39355;-78
2021/12/12 03:48:17;;;;;;;56.60;33.47;;;7.70;99.90;;;;;;4986948;28;37282;-78
2021/12/12 03:50:45;;;;;;;56.13;32.38;;;7.80;99.90;;;;;;4982881;28;47018;-78
2021/12/12 03:53:12;;;;;;;46.20;30.60;;;7.80;99.90;;;;;;4982032;28;38738;-78
2021/12/12 03:55:40;;;;;;;56.00;34.80;;;7.80;99.90;;;;;;4979819;28;36804;-77
2021/12/12 03:58:07;;;;;;;61.47;35.97;;;7.80;99.90;;;;;;4962158;28;36308;-78
2021/12/12 04:00:46;;;;;;;58.50;35.80;;;7.80;99.90;;;;;;4973737;28;39842;-77
2021/12/12 04:03:13;;;;;;;58.07;34.20;;;7.80;99.90;;;;;;4979476;28;38228;-77
2021/12/12 04:05:43;;;;;;;61.10;36.27;;;7.90;99.90;;;;;;4962014;28;38974;-76
2021/12/12 04:08:09;;;;;;;56.00;35.87;;;7.90;99.90;;;;;;4982417;28;38833;-76
2021/12/12 04:10:36;;;;;;;54.17;36.00;;;7.90;99.90;;;;;;4966612;28;40472;-76
2021/12/12 04:13:02;;;;;;;67.63;38.70;;;7.90;99.90;;;;;;4987487;28;38211;-77
2021/12/12 04:15:29;;;;;;;54.50;36.07;;;7.90;99.90;;;;;;4985691;28;38615;-77
2021/12/12 04:17:55;;;;;;;63.97;38.73;;;8.00;99.90;;;;;;4987781;28;37293;-76
2021/12/12 04:20:29;;;;;;;76.00;44.30;;;8.00;99.90;;;;;;4958137;28;39535;-76
2021/12/12 04:22:55;;;;;;;69.23;41.63;;;8.00;99.90;;;;;;4984907;28;38487;-77
2021/12/12 04:25:23;;;;;;;58.10;38.90;;;8.10;99.90;;;;;;4984971;28;37527;-77
2021/12/12 04:27:50;;;;;;;70.80;43.33;;;8.10;99.90;;;;;;4984572;28;37472;-76
2021/12/12 04:30:17;;;;;;;58.17;37.60;;;8.10;99.90;;;;;;4984606;28;38905;-76
2021/12/12 04:32:45;;;;;;;72.90;43.27;;;8.10;99.90;;;;;;4984682;28;39785;-77
2021/12/12 04:35:25;;;;;;;57.93;38.50;;;8.10;99.90;;;;;;4989783;28;38470;-77
2021/12/12 04:37:57;;;;;;;64.20;40.37;;;8.10;99.90;;;;;;4988319;28;38113;-76
2021/12/12 04:40:26;;;;;;;64.50;42.08;;;8.10;99.90;;;;;;4968967;28;37741;-77
2021/12/12 04:42:55;;;;;;;65.87;39.97;;;8.20;99.90;;;;;;4994382;28;38410;-76
2021/12/12 04:46:08;;;;;;;88.57;45.43;;;8.20;99.90;;;;;;4980444;28;38600;-76
2021/12/12 04:51:49;;;;;;;76.00;44.80;;;8.20;99.90;;;;;;4967336;28;48887;-77
2021/12/12 04:54:42;;;;;;;65.07;40.40;;;8.30;99.90;;;;;;4977759;28;39238;-76
2021/12/12 04:57:19;;;;;;;66.50;40.73;;;8.30;99.90;;;;;;4972973;28;38901;-76
2021/12/12 04:59:53;;;;;;;64.50;38.53;;;8.30;99.90;;;;;;4966697;28;37649;-77
2021/12/12 05:02:36;;;;;;;66.80;40.07;;;8.30;99.90;;;;;;4983168;28;39684;-76
2021/12/12 05:05:07;;;;;;;81.22;46.63;;;8.30;99.90;;;;;;4985426;28;37950;-76
2021/12/12 05:07:44;;;;;;;59.20;37.40;;;8.30;99.90;;;;;;4968187;28;46940;-76
2021/12/12 05:10:30;;;;;;;62.17;39.53;;;8.40;99.90;;;;;;4984751;28;37323;-75
2021/12/12 05:13:11;;;;;;;68.70;41.23;;;8.40;99.90;;;;;;4981119;28;40691;-76
2021/12/12 05:15:41;;;;;;;70.43;41.23;;;8.40;99.90;;;;;;4961226;28;49809;-77
2021/12/12 05:18:20;;;;;;;69.80;41.77;;;8.40;99.90;;;;;;4982880;28;39534;-76
2021/12/12 05:20:59;;;;;;;59.03;39.20;;;8.40;99.90;;;;;;4968159;28;38357;-76
2021/12/12 05:23:27;;;;;;;64.73;40.27;;;8.40;99.90;;;;;;4984047;28;38974;-76
2021/12/12 05:26:15;;;;;;;69.17;40.60;;;8.40;99.90;;;;;;4967494;28;39149;-76
2021/12/12 05:29:13;;;;;;;79.13;43.27;;;8.50;99.90;;;;;;4964366;28;46747;-76
2021/12/12 05:31:45;;;;;;;89.53;44.10;;;8.50;99.90;;;;;;4962401;28;48695;-76
2021/12/12 05:34:12;;;;;;;60.88;38.72;;;8.60;99.90;;;;;;4982362;28;40659;-76
2021/12/12 05:36:39;;;;;;;70.83;40.00;;;8.50;99.90;;;;;;4987347;28;36759;-76
2021/12/12 05:39:05;;;;;;;69.97;40.40;;;8.60;99.90;;;;;;4971181;28;38488;-77
2021/12/12 05:41:32;;;;;;;76.90;42.67;;;8.50;99.90;;;;;;4969203;28;39240;-76
2021/12/12 05:43:59;;;;;;;66.97;37.47;;;8.60;99.90;;;;;;4971816;28;39604;-77
2021/12/12 05:46:26;;;;;;;66.00;39.27;;;8.60;99.90;;;;;;4973861;28;38869;-77
2021/12/12 05:48:54;;;;;;;75.23;40.97;;;8.60;99.90;;;;;;4966449;28;38236;-77
2021/12/12 05:51:22;;;;;;;83.47;43.67;;;8.70;99.90;;;;;;4954986;28;37663;-77
2021/12/12 05:53:52;;;;;;;58.07;36.27;;;8.60;99.90;;;;;;4985610;28;40829;-76
2021/12/12 05:56:27;;;;;;;71.53;41.40;;;8.70;99.90;;;;;;4984691;28;39357;-77
2021/12/12 05:58:54;;;;;;;68.33;40.57;;;8.70;99.90;;;;;;4982101;28;38142;-76
2021/12/12 06:01:20;;;;;;;71.93;40.67;;;8.70;99.90;;;;;;4979883;28;37095;-76
2021/12/12 06:03:48;;;;;;;81.53;41.33;;;8.80;99.90;;;;;;4982053;28;38368;-76
2021/12/12 06:06:20;;;;;;;74.93;40.10;;;8.80;99.90;;;;;;4974181;28;40133;-76
2021/12/12 06:08:48;;;;;;;62.83;38.35;;;8.80;99.90;;;;;;4972309;28;37737;-77
2021/12/12 06:11:17;;;;;;;70.60;38.37;;;8.80;99.90;;;;;;4995205;28;37333;-76
2021/12/12 06:13:44;;;;;;;71.37;38.53;;;8.80;99.90;;;;;;4970214;28;39080;-76
2021/12/12 06:16:18;;;;;;;70.37;38.87;;;8.90;99.90;;;;;;4982570;28;38748;-77
2021/12/12 06:18:52;;;;;;;80.03;40.90;;;8.90;99.90;;;;;;4968918;28;39206;-77
2021/12/12 06:21:18;;;;;;;82.60;42.63;;;8.90;99.90;;;;;;4966877;28;37902;-77
2021/12/12 06:23:45;;;;;;;82.83;40.90;;;9.00;99.90;;;;;;4960748;28;37437;-77
2021/12/12 06:26:11;;;;;;;88.97;44.67;;;9.00;99.90;;;;;;4962578;28;39590;-77
2021/12/12 06:28:39;;;;;;;83.63;41.10;;;9.00;99.90;;;;;;4968343;28;38631;-77
2021/12/12 06:31:08;;;;;;;65.60;37.80;;;9.00;99.90;;;;;;4967547;28;37635;-77
2021/12/12 06:33:37;;;;;;;88.13;40.07;;;9.00;99.90;;;;;;4974520;28;39669;-77
2021/12/12 06:36:08;;;;;;;85.57;42.43;;;9.00;99.90;;;;;;4960464;28;38560;-77
2021/12/12 06:38:37;;;;;;;83.03;45.87;;;9.00;99.90;;;;;;4964491;28;35586;-76
2021/12/12 06:41:03;;;;;;;71.47;40.40;;;9.00;99.90;;;;;;4962737;28;38081;-77
2021/12/12 06:43:32;;;;;;;85.37;43.73;;;9.00;99.90;;;;;;4963404;28;39564;-76
2021/12/12 06:46:00;;;;;;;87.13;44.60;;;9.00;99.90;;;;;;4962357;28;38750;-77
2021/12/12 06:48:26;;;;;;;116.77;49.13;;;9.00;99.90;;;;;;4962134;28;40685;-77
2021/12/12 06:50:56;;;;;;;82.83;40.00;;;9.00;99.90;;;;;;4962817;28;38975;-76
2021/12/12 06:53:24;;;;;;;99.47;44.53;;;9.00;99.90;;;;;;4962356;28;38882;-77
2021/12/12 06:55:52;;;;;;;93.50;44.13;;;9.10;99.90;;;;;;4977085;28;37319;-77
2021/12/12 06:58:19;;;;;;;88.73;43.07;;;9.10;99.90;;;;;;4976717;28;39046;-77
2021/12/12 07:00:55;;;;;;;95.33;41.43;;;9.10;99.90;;;;;;4960359;28;38025;-77
2021/12/12 07:03:22;;;;;;;85.37;42.50;;;9.10;99.90;;;;;;4963717;28;39538;-77
2021/12/12 07:05:49;;;;;;;101.00;43.13;;;9.10;99.90;;;;;;4959455;28;38190;-77
2021/12/12 07:08:19;;;;;;;123.17;48.57;;;9.20;99.90;;;;;;4960978;28;38905;-77
2021/12/12 07:10:46;;;;;;;98.97;43.13;;;9.20;99.90;;;;;;4962853;28;38257;-78
2021/12/12 07:13:13;;;;;;;114.73;44.20;;;9.20;99.90;;;;;;4966563;28;37753;-78
2021/12/12 07:15:48;;;;;;;89.50;40.30;;;9.20;99.90;;;;;;4962030;28;38015;-79
2021/12/12 07:18:18;;;;;;;92.50;41.90;;;9.20;99.90;;;;;;4965567;28;37944;-78
2021/12/12 07:20:48;;;;;;;119.77;47.87;;;9.20;99.90;;;;;;4963459;28;38117;-78
2021/12/12 07:23:15;;;;;;;97.90;42.30;;;9.20;99.90;;;;;;4964222;28;40885;-78
2021/12/12 07:25:43;;;;;;;86.47;42.73;;;9.20;99.90;;;;;;4965299;28;39161;-78
2021/12/12 07:28:09;;;;;;;86.53;40.70;;;9.30;99.90;;;;;;4961999;28;38683;-78
2021/12/12 07:30:36;;;;;;;91.07;40.70;;;9.30;99.90;;;;;;4966796;28;37792;-78
2021/12/12 07:33:04;;;;;;;78.77;39.40;;;9.30;99.90;;;;;;4963872;28;39632;-77
2021/12/12 07:35:34;;;;;;;115.27;45.80;;;9.30;99.90;;;;;;4978209;28;39136;-78
2021/12/12 07:38:01;;;;;;;83.53;40.13;;;9.30;99.90;;;;;;4964309;28;39269;-77
2021/12/12 07:40:28;;;;;;;90.20;39.87;;;9.30;99.90;;;;;;4978262;28;36665;-78
2021/12/12 07:42:56;;;;;;;82.40;37.27;;;9.30;99.90;;;;;;4983824;28;38640;-77
2021/12/12 07:45:23;;;;;;;113.60;45.67;;;9.30;99.90;;;;;;4978018;28;38889;-77
2021/12/12 07:47:51;;;;;;;89.37;39.77;;;9.40;99.90;;;;;;4951160;28;39448;-77
2021/12/12 07:50:20;;;;;;;173.13;53.07;;;9.40;99.90;;;;;;4974186;28;37463;-77
2021/12/12 07:52:47;;;;;;;105.90;44.63;;;9.40;99.90;;;;;;4972005;28;38364;-78
2021/12/12 07:55:14;;;;;;;108.20;42.57;;;9.40;99.90;;;;;;4961424;28;39148;-76
2021/12/12 07:57:41;;;;;;;124.07;47.00;;;9.50;99.90;;;;;;4962306;28;38977;-76
2021/12/12 08:00:16;;;;;;;97.00;42.17;;;9.50;99.90;;;;;;4960092;28;38448;-76
2021/12/12 08:02:43;;;;;;;92.70;39.63;;;9.50;99.90;;;;;;4977491;28;37352;-77
2021/12/12 08:05:13;;;;;;;81.10;37.27;;;9.50;99.90;;;;;;4979164;28;37988;-76
2021/12/12 08:07:40;;;;;;;94.63;42.37;;;9.50;99.90;;;;;;4969029;28;37495;-76
2021/12/12 08:10:09;;;;;;;115.97;45.03;;;9.50;99.90;;;;;;4968124;28;36668;-76
2021/12/12 08:12:35;;;;;;;104.43;42.20;;;9.60;99.90;;;;;;4991202;28;38897;-77
2021/12/12 08:15:04;;;;;;;88.83;37.80;;;9.50;99.90;;;;;;4985011;28;38296;-76
2021/12/12 08:17:31;;;;;;;99.47;40.43;;;9.60;99.90;;;;;;4988039;28;37837;-77
2021/12/12 08:20:05;;;;;;;72.40;34.73;;;9.60;99.90;;;;;;4975279;28;36410;-77
2021/12/12 08:22:35;;;;;;;84.20;36.33;;;9.60;99.90;;;;;;4953843;28;47212;-76
2021/12/12 08:25:07;;;;;;;78.13;37.47;;;9.60;99.90;;;;;;4940019;28;37886;-77
2021/12/12 08:31:03;;;;;;;81.90;34.50;;;9.60;99.90;;;;;;4948783;28;49602;-75
2021/12/12 08:33:30;;;;;;;73.00;36.10;;;9.70;99.90;;;;;;4951965;28;47508;-75
2021/12/12 08:36:05;;;;;;;79.67;37.03;;;9.70;99.90;;;;;;4980704;28;38486;-76
2021/12/12 08:38:51;;;;;;;72.53;35.23;;;9.70;99.90;;;;;;4927797;28;47308;-76
2021/12/12 08:41:17;;;;;;;100.77;39.33;;;9.70;99.90;;;;;;4948095;28;37313;-75
2021/12/12 08:43:44;;;;;;;72.70;32.70;;;9.80;99.90;;;;;;4991686;28;38899;-75
2021/12/12 08:46:13;;;;;;;77.23;36.90;;;9.80;99.90;;;;;;4983816;28;37594;-75
2021/12/12 08:48:47;;;;;;;78.17;37.70;;;9.90;99.90;;;;;;4987974;28;39265;-75
2021/12/12 08:51:22;;;;;;;64.00;32.57;;;9.90;99.90;;;;;;4988620;28;38342;-75
2021/12/12 08:53:51;;;;;;;66.63;32.10;;;9.90;99.90;;;;;;4983697;28;38621;-75
2021/12/12 08:56:30;;;;;;;57.63;30.10;;;10.00;99.90;;;;;;4964622;28;37823;-75
2021/12/12 08:58:59;;;;;;;55.60;29.23;;;9.90;99.90;;;;;;4983326;28;38138;-75
2021/12/12 09:01:25;;;;;;;60.00;31.17;;;9.90;99.90;;;;;;4964078;28;38377;-75
2021/12/12 09:03:56;;;;;;;63.77;29.93;;;9.90;99.90;;;;;;4950455;28;38072;-75
2021/12/12 09:06:29;;;;;;;68.43;31.03;;;9.90;99.90;;;;;;4967192;28;38404;-74
2021/12/12 09:09:06;;;;;;;54.83;28.67;;;9.90;99.90;;;;;;4955041;28;38557;-75
2021/12/12 09:11:35;;;;;;;49.63;25.87;;;10.00;99.90;;;;;;4980482;28;48483;-75
2021/12/12 09:14:16;;;;;;;50.00;27.90;;;10.00;99.90;;;;;;4980575;28;40518;-76
2021/12/12 09:16:50;;;;;;;51.73;28.00;;;10.00;99.90;;;;;;4981247;28;47252;-75
2021/12/12 09:19:25;;;;;;;44.80;25.73;;;10.10;99.90;;;;;;4963887;28;38278;-76
2021/12/12 09:22:07;;;;;;;47.57;27.87;;;10.10;99.90;;;;;;4955149;28;37217;-76
2021/12/12 09:24:59;;;;;;;58.55;27.40;;;10.20;99.90;;;;;;4965673;28;47967;-76
2021/12/12 09:27:44;;;;;;;42.10;24.53;;;10.20;99.90;;;;;;4974860;28;37400;-76
2021/12/12 09:30:21;;;;;;;44.87;23.20;;;10.30;99.90;;;;;;4988028;28;37317;-76
2021/12/12 09:33:12;;;;;;;46.63;25.80;;;10.30;99.90;;;;;;4981385;28;37873;-75
2021/12/12 09:36:11;;;;;;;42.67;24.00;;;10.30;99.90;;;;;;4974356;28;47264;-75
2021/12/12 09:39:02;;;;;;;42.20;23.77;;;10.30;99.90;;;;;;4965767;28;47344;-74
2021/12/12 09:41:50;;;;;;;38.40;22.37;;;10.40;99.90;;;;;;4975550;28;48837;-75
2021/12/12 09:44:37;;;;;;;37.93;22.70;;;10.40;99.90;;;;;;4974422;28;37881;-75
2021/12/12 09:47:27;;;;;;;34.30;23.20;;;10.40;99.90;;;;;;4981735;28;38907;-75
2021/12/12 09:53:27;;;;;;;38.73;23.27;;;10.50;99.90;;;;;;4978706;28;49317;-76
2021/12/12 09:56:06;;;;;;;36.20;23.43;;;10.50;99.90;;;;;;4982891;28;37526;-75
2021/12/12 09:58:52;;;;;;;49.97;26.40;;;10.60;99.90;;;;;;4962258;28;46073;-75
2021/12/12 10:01:35;;;;;;;45.70;25.23;;;10.60;99.90;;;;;;4971551;28;37809;-75
2021/12/12 10:04:29;;;;;;;65.90;29.50;;;10.60;99.90;;;;;;4967947;28;37116;-75
2021/12/12 10:07:08;;;;;;;40.73;24.03;;;10.60;99.90;;;;;;4972196;28;48572;-75
2021/12/12 10:09:45;;;;;;;49.30;27.53;;;10.70;99.90;;;;;;4984268;28;46954;-75
2021/12/12 10:12:20;;;;;;;36.60;22.27;;;10.80;99.90;;;;;;4976290;28;38490;-76
2021/12/12 10:15:08;;;;;;;42.43;24.43;;;10.70;99.90;;;;;;4979080;28;38498;-75
2021/12/12 10:17:48;;;;;;;39.37;23.93;;;10.80;99.90;;;;;;4965845;28;48806;-75
2021/12/12 10:20:34;;;;;;;31.43;22.00;;;10.80;99.90;;;;;;4967857;28;37613;-75
2021/12/12 10:23:09;;;;;;;31.33;21.33;;;10.80;99.90;;;;;;4967396;28;37738;-75
2021/12/12 10:25:46;;;;;;;31.90;21.57;;;10.80;99.90;;;;;;4979931;28;48495;-75
2021/12/12 10:28:32;;;;;;;31.23;21.63;;;10.90;99.90;;;;;;4965727;28;37936;-76
2021/12/12 10:31:16;;;;;;;33.97;21.27;;;10.90;99.90;;;;;;4984304;28;38803;-75
2021/12/12 10:33:48;;;;;;;35.23;21.83;;;10.90;99.90;;;;;;4957528;28;47570;-75
2021/12/12 10:36:19;;;;;;;32.05;20.05;;;10.90;99.90;;;;;;4968911;28;37980;-76
2021/12/12 10:38:57;;;;;;;28.20;18.87;;;11.00;99.90;;;;;;4981915;28;37543;-75
2021/12/12 10:41:35;;;;;;;22.53;16.47;;;10.90;99.90;;;;;;4987536;28;38726;-75
2021/12/12 10:44:18;;;;;;;26.73;17.07;;;10.90;99.90;;;;;;4969116;28;38301;-76
2021/12/12 10:47:09;;;;;;;26.20;18.17;;;10.90;99.90;;;;;;4985253;28;37958;-75
2021/12/12 10:50:07;;;;;;;22.00;16.70;;;10.90;99.90;;;;;;4979338;28;47249;-76
2021/12/12 10:52:40;;;;;;;21.43;15.73;;;10.90;99.90;;;;;;4979055;28;47077;-76
2021/12/12 10:55:20;;;;;;;24.37;17.63;;;10.90;99.90;;;;;;4987731;28;37501;-76
2021/12/12 10:57:57;;;;;;;21.03;16.57;;;10.90;99.90;;;;;;4966643;28;38113;-76
2021/12/12 11:00:29;;;;;;;20.60;15.80;;;11.00;99.90;;;;;;4987011;28;37484;-76
2021/12/12 11:03:16;;;;;;;23.23;17.27;;;11.00;99.90;;;;;;4966166;28;40200;-75
2021/12/12 11:05:51;;;;;;;20.47;15.70;;;11.00;99.90;;;;;;4983279;28;39950;-75
2021/12/12 11:08:24;;;;;;;24.30;16.90;;;11.10;99.90;;;;;;4988019;28;38220;-75
2021/12/12 11:10:55;;;;;;;18.17;14.60;;;11.10;99.90;;;;;;4985300;28;37574;-76
2021/12/12 11:13:49;;;;;;;21.17;16.40;;;11.10;99.90;;;;;;4959193;28;37589;-77
2021/12/12 11:16:50;;;;;;;22.73;16.73;;;11.10;99.90;;;;;;4958201;28;38639;-77
2021/12/12 11:19:26;;;;;;;19.67;15.73;;;11.20;99.90;;;;;;4926892;29;38302;-77
2021/12/12 11:22:01;;;;;;;23.80;16.60;;;11.20;99.90;;;;;;4959780;28;37440;-76
2021/12/12 11:24:34;;;;;;;21.80;16.83;;;11.30;99.90;;;;;;4957383;28;47314;-76
2021/12/12 11:27:05;;;;;;;17.83;15.03;;;11.40;99.90;;;;;;4972873;28;39379;-75
2021/12/12 11:29:40;;;;;;;22.97;16.90;;;11.40;99.90;;;;;;4981332;28;49346;-76
2021/12/12 11:32:11;;;;;;;22.33;16.00;;;11.40;99.90;;;;;;4961350;28;36204;-75
2021/12/12 11:34:43;;;;;;;18.17;14.50;;;11.40;99.90;;;;;;4987815;28;38568;-76
2021/12/12 11:37:34;;;;;;;19.25;15.18;;;11.40;99.90;;;;;;4996219;28;38533;-75
2021/12/12 11:40:20;;;;;;;19.40;14.97;;;11.40;99.90;;;;;;4971896;28;39102;-75
2021/12/12 11:42:57;;;;;;;22.83;16.33;;;11.40;99.90;;;;;;4960622;28;48900;-76
2021/12/12 11:45:38;;;;;;;18.07;14.97;;;11.40;99.90;;;;;;4951665;28;39640;-76
2021/12/12 11:48:38;;;;;;;16.63;13.90;;;11.40;99.90;;;;;;4952889;28;38823;-75
2021/12/12 11:51:32;;;;;;;17.93;14.60;;;11.40;99.90;;;;;;4963738;28;37658;-76
2021/12/12 11:54:11;;;;;;;23.67;16.70;;;11.40;99.90;;;;;;4948469;28;38364;-75
2021/12/12 11:56:45;;;;;;;22.00;15.83;;;11.40;99.90;;;;;;4984579;28;48573;-75
2021/12/12 11:59:19;;;;;;;28.70;18.83;;;11.40;99.90;;;;;;4965434;28;38835;-75
2021/12/12 12:02:00;;;;;;;27.80;18.37;;;11.40;99.90;;;;;;4964171;28;39956;-76
2021/12/12 12:04:35;;;;;;;20.43;17.07;;;11.40;99.90;;;;;;4958840;28;38778;-75
2021/12/12 12:07:07;;;;;;;27.87;18.30;;;11.50;99.90;;;;;;4960155;28;40223;-76
2021/12/12 12:09:55;;;;;;;24.80;17.73;;;11.50;99.90;;;;;;4961990;28;38218;-75
2021/12/12 12:12:40;;;;;;;35.40;20.97;;;11.50;99.90;;;;;;4973642;28;38258;-75
2021/12/12 12:15:33;;;;;;;25.23;17.83;;;11.60;99.90;;;;;;4960989;28;38005;-75
2021/12/12 12:18:22;;;;;;;30.58;19.92;;;11.50;99.90;;;;;;4982176;28;39527;-75
2021/12/12 12:21:16;;;;;;;28.37;18.20;;;11.60;99.90;;;;;;4967402;28;47103;-75
2021/12/12 12:27:02;;;;;;;38.03;22.10;;;11.50;99.90;;;;;;4977893;28;49328;-75
2021/12/12 12:29:30;;;;;;;40.83;21.23;;;11.60;99.90;;;;;;4959378;28;47715;-75
2021/12/12 12:32:24;;;;;;;32.57;19.77;;;11.60;99.90;;;;;;4961951;28;38209;-75
2021/12/12 12:34:50;;;;;;;39.23;20.53;;;11.70;99.90;;;;;;4963458;28;48756;-75
2021/12/12 12:37:47;;;;;;;40.40;18.97;;;11.70;99.90;;;;;;4958763;28;37171;-75
2021/12/12 12:40:46;;;;;;;31.70;17.17;;;11.70;99.90;;;;;;4972092;28;37812;-74
2021/12/12 12:43:43;;;;;;;58.07;23.63;;;11.80;99.90;;;;;;4981957;28;38305;-75
2021/12/12 12:46:34;;;;;;;39.77;18.33;;;11.80;99.90;;;;;;4974399;28;38896;-75
2021/12/12 12:49:25;;;;;;;48.67;20.97;;;11.90;99.90;;;;;;4985061;28;38218;-75
2021/12/12 12:51:51;;;;;;;43.40;19.03;;;12.00;99.90;;;;;;4984202;28;48726;-75
2021/12/12 12:54:45;;;;;;;49.93;19.53;;;12.00;99.90;;;;;;4983785;28;38370;-76
2021/12/12 12:57:26;;;;;;;37.33;17.63;;;12.00;99.90;;;;;;4978180;28;38037;-75
2021/12/12 13:00:07;;;;;;;41.47;16.67;;;12.00;99.90;;;;;;4979678;28;37293;-76
2021/12/12 13:03:10;;;;;;;47.13;17.00;;;12.10;99.90;;;;;;4967014;28;46001;-75
2021/12/12 13:05:55;;;;;;;52.30;15.98;;;12.10;99.90;;;;;;4979396;28;47316;-75
2021/12/12 13:08:58;;;;;;;47.80;16.37;;;12.10;99.90;;;;;;4976275;28;39033;-75
2021/12/12 13:11:32;;;;;;;;;;;12.20;99.90;;;;;;4973784;28;37300;-75
2021/12/12 13:14:22;;;;;;;56.67;13.53;;;12.20;99.90;;;;;;4968017;28;40389;-75
2021/12/12 13:16:56;;;;;;;52.13;10.65;;;12.30;99.90;;;;;;4943110;28;48128;-77
2021/12/12 13:19:41;;;;;;;47.80;10.40;;;12.30;99.90;;;;;;4959440;28;37418;-76
2021/12/12 13:22:35;;;;;;;54.90;11.20;;;12.30;99.90;;;;;;4948151;28;39212;-76
2021/12/12 13:25:16;;;;;;;58.43;11.70;;;12.30;99.90;;;;;;4983206;28;38839;-76
2021/12/12 13:28:09;;;;;;;35.17;8.77;;;12.30;99.90;;;;;;4981914;28;48623;-76
2021/12/12 13:30:43;;;;;;;53.88;11.20;;;12.30;99.90;;;;;;4988319;28;47080;-76
2021/12/12 13:33:24;;;;;;;45.90;9.97;;;12.30;99.90;;;;;;4978766;28;36301;-76
2021/12/12 13:36:11;;;;;;;54.27;10.90;;;12.30;99.90;;;;;;4997097;28;41274;-76